Pagina principale
METAR-TAF:

METAR-TAF

Aeroporti :

Tabuk, Arabia Saudita

latitudine: 28-22N, longitudine: 036-36E, altezza: 778 m

Osservazione

Il bollettino è stato emesso 1 ora e 4 minuti fa, alle 18:00 UTC
Vento 6 kt da nord-est
Temperature 14°C
Umidità 23%
Pressione 1017 hPa
Visibilità 10 km o più
nessuna nube inferiore a 1500 m e nessun cumulonembo

METAR: OETB 211800Z 04006KT CAVOK 14/M07 Q1017 NOSIG

Ora: 22:04 (19:04 UTC)

Previsione

Il bollettino è stato emesso 8 ore e 4 minuti fa, alle 11:00 UTC
Previsione valida dal 21 alle 12 UTC al 22 alle 18 UTC
Vento 10 kt da sud-est
Visibilità 10 km o più
nessuna nube inferiore a 1500 m e nessun cumulonembo
Evoluzione graduale
dal 21 alle 18 UTC al 21 alle 20 UTC
Vento 3 kt da direzioni variabili

TAF: OETB 211100Z 2112/2218 14010KT CAVOK BECMG 2118/2120 VRB03KT

Osservazioni e previsioni meteorologiche di più di 4000 aeroporti (messaggi METAR e TAF).

Le stazioni disponibili sono rappresentate dai dischi gialli e rossi sulla carta.

Puntare il mouse per vedere il nome della stazione.

Clicca sopra per visualizzare le osservazioni e previsioni meteorologiche.

Per cambiare la mappa : fare clic sui pulsanti verdi con una croce nera per ingrandire, il pulsante verde con un trattino per diminuire, o sulla freccia verde per le mappe adiacenti.


METAR-TAF: